Time;durP1;ratioP1;P1;durP2;ratioP2;P2;SDS_P1;SDS_P2;PMS_P1;PMS_P2;Temp;Humidity;BMP_temperature;BMP_pressure;BME280_temperature;BME280_humidity;BME280_pressure;Samples;Min_cycle;Max_cycle;Signal;HPM_P1;HPM_P2
2022/04/14 00:01:12;;;;;;;7.13;5.75;;;;;;;10.43;39.95;99969.94;5033382;28;20417;-88
2022/04/14 00:03:40;;;;;;;6.50;5.40;;;;;;;10.38;40.13;99984.59;5033401;28;20036;-88
2022/04/14 00:06:05;;;;;;;7.63;5.07;;;;;;;10.96;40.32;100081.28;5051322;28;20516;-88
2022/04/14 00:08:31;;;;;;;6.65;5.47;;;;;;;10.35;40.49;99982.28;5051294;28;20067;-88
2022/04/14 00:10:56;;;;;;;6.15;5.55;;;;;;;10.48;40.32;100017.78;5033431;28;20108;-88
2022/04/14 00:13:22;;;;;;;6.68;5.70;;;;;;;10.87;40.41;100071.72;5051647;28;20107;-88
2022/04/14 00:15:47;;;;;;;6.05;5.43;;;;;;;10.14;40.77;99980.94;5032704;28;20094;-88
2022/04/14 00:18:12;;;;;;;7.22;5.53;;;;;;;9.48;40.89;99855.28;5033435;28;20178;-88
2022/04/14 00:20:38;;;;;;;6.13;5.18;;;;;;;10.49;40.91;100050.28;5033373;28;20539;-88
2022/04/14 00:23:04;;;;;;;8.55;6.05;;;;;;;10.01;40.59;99937.56;5033693;28;20033;-88
2022/04/14 00:25:29;;;;;;;6.72;5.70;;;;;;;10.85;40.93;100063.13;5033164;28;20115;-87
2022/04/14 00:27:54;;;;;;;7.05;5.65;;;;;;;10.82;40.57;100080.13;5033537;28;20159;-88
2022/04/14 00:30:20;;;;;;;6.38;5.78;;;;;;;10.85;40.85;100069.25;5051249;28;20021;-88
2022/04/14 00:32:45;;;;;;;29.23;16.77;;;;;;;9.72;41.33;99924.84;5051333;28;20027;-88
2022/04/14 00:35:11;;;;;;;11.48;9.13;;;;;;;10.74;40.75;100054.56;5033536;28;20051;-88
2022/04/14 00:37:36;;;;;;;8.30;7.10;;;;;;;9.88;40.99;99915.16;5033208;28;20052;-88
2022/04/14 00:40:02;;;;;;;8.02;5.35;;;;;;;10.92;40.63;100085.25;5033048;28;20021;-88
2022/04/14 00:42:27;;;;;;;6.65;5.85;;;;;;;9.85;41.02;99930.47;5033034;28;20106;-88
2022/04/14 00:44:53;;;;;;;6.93;6.22;;;;;;;9.66;41.38;99904.38;5033016;28;20028;-88
2022/04/14 00:47:19;;;;;;;7.47;6.28;;;;;;;9.78;41.22;99943.47;5033096;28;20029;-88
2022/04/14 00:49:44;;;;;;;10.00;6.47;;;;;;;10.87;40.84;100098.13;5050887;28;20066;-88
2022/04/14 00:52:10;;;;;;;7.05;6.35;;;;;;;9.68;40.76;99895.34;5033257;28;20486;-88
2022/04/14 00:54:35;;;;;;;8.05;6.55;;;;;;;10.77;40.88;100082.47;5050932;28;20423;-88
2022/04/14 00:57:03;;;;;;;8.00;5.75;;;;;;;9.80;41.29;99940.69;5050911;28;20035;-88
2022/04/14 00:59:29;;;;;;;7.28;5.82;;;;;;;10.01;41.34;99982.41;5050590;28;20025;-87
2022/04/14 01:01:55;;;;;;;7.28;6.05;;;;;;;9.77;41.67;99944.47;5050791;28;20029;-88
2022/04/14 01:04:21;;;;;;;28.60;19.05;;;;;;;9.54;41.57;99928.41;5050707;28;20028;-88
2022/04/14 01:06:47;;;;;;;15.57;9.18;;;;;;;10.38;41.87;100071.69;5032883;28;20025;-88
2022/04/14 01:09:16;;;;;;;6.63;5.93;;;;;;;10.35;41.83;100074.66;5050658;28;20025;-88
2022/04/14 01:11:43;;;;;;;8.07;6.03;;;;;;;9.74;41.68;99987.00;5032826;28;20025;-88
2022/04/14 01:14:36;;;;;;;7.00;5.57;;;;;;;10.29;41.90;100081.41;5032811;28;20033;-88
2022/04/14 01:17:03;;;;;;;7.43;6.10;;;;;;;9.40;41.84;99957.22;5032649;28;20025;-88
2022/04/14 01:19:29;;;;;;;9.75;5.68;;;;;;;10.24;41.90;100074.97;5032619;28;20051;-87
2022/04/14 01:22:06;;;;;;;8.40;5.60;;;;;;;9.32;42.35;99946.66;5050438;28;20025;-88
2022/04/14 01:24:31;;;;;;;5.80;5.05;;;;;;;9.39;41.91;99947.66;5050444;28;20096;-88
2022/04/14 01:26:58;;;;;;;6.18;5.05;;;;;;;10.11;41.62;100070.97;5034967;28;20103;-88
2022/04/14 01:29:25;;;;;;;6.45;4.75;;;;;;;9.29;41.81;99965.41;5038152;28;20028;-87
2022/04/14 01:31:53;;;;;;;8.48;5.13;;;;;;;10.01;41.92;100078.19;5038633;28;20052;-88
2022/04/14 01:34:18;;;;;;;9.75;5.38;;;;;;;9.19;42.12;99958.47;5055279;28;20032;-87
2022/04/14 01:36:44;;;;;;;7.18;4.82;;;;;;;9.18;41.95;99975.25;5054123;28;20071;-87
2022/04/14 01:39:11;;;;;;;7.85;4.75;;;;;;;9.46;42.23;100027.75;5054083;28;20113;-87
2022/04/14 01:41:41;;;;;;;6.32;5.03;;;;;;;9.05;42.25;99989.84;5036095;28;20505;-88
2022/04/14 01:44:08;;;;;;;7.22;5.22;;;;;;;8.08;41.78;99819.00;5036128;28;20091;-88
2022/04/14 01:46:34;;;;;;;6.38;5.30;;;;;;;8.97;42.38;99968.75;5054060;28;20029;-88
2022/04/14 01:49:00;;;;;;;7.60;5.32;;;;;;;9.56;42.32;100099.59;5036190;28;20094;-88
2022/04/14 01:51:26;;;;;;;6.63;4.93;;;;;;;9.49;42.80;100082.78;5036215;28;20178;-88
2022/04/14 01:53:52;;;;;;;5.35;4.82;;;;;;;9.00;42.57;100008.75;5035728;28;20029;-88
2022/04/14 01:56:18;;;;;;;7.05;5.75;;;;;;;9.12;42.75;100048.81;5053723;28;20036;-87
2022/04/14 01:58:44;;;;;;;7.38;5.95;;;;;;;8.84;42.82;100024.44;5053824;28;20037;-88
2022/04/14 02:01:09;;;;;;;7.00;5.53;;;;;;;8.93;43.02;100028.81;5035909;28;20446;-87
2022/04/14 02:03:36;;;;;;;8.82;6.15;;;;;;;8.55;42.81;99987.88;5053695;28;20119;-88
2022/04/14 02:06:01;;;;;;;6.72;5.55;;;;;;;9.47;43.18;100104.00;5035848;28;20449;-88
2022/04/14 02:08:27;;;;;;;6.78;5.05;;;;;;;8.73;43.04;99986.03;5053707;28;20029;-88
2022/04/14 02:10:52;;;;;;;5.60;5.10;;;;;;;9.43;43.16;100112.41;5035764;28;20432;-88
2022/04/14 02:13:18;;;;;;;7.75;5.78;;;;;;;7.94;43.42;99875.59;5053699;28;20029;-88
2022/04/14 02:15:43;;;;;;;6.90;5.53;;;;;;;9.18;43.31;100117.53;5053465;28;20028;-87
2022/04/14 02:18:08;;;;;;;9.23;6.30;;;;;;;8.36;43.08;99993.34;5053246;28;20094;-88
2022/04/14 02:20:34;;;;;;;10.05;6.70;;;;;;;8.29;43.28;99975.50;5053152;28;20083;-88
2022/04/14 02:22:59;;;;;;;8.30;5.85;;;;;;;7.92;43.86;99932.75;5035581;28;20383;-88
2022/04/14 02:25:24;;;;;;;7.72;6.38;;;;;;;9.07;43.33;100077.44;5035663;28;20497;-88
2022/04/14 02:27:50;;;;;;;10.82;6.45;;;;;;;8.64;43.40;100013.28;5053241;28;20027;-88
2022/04/14 02:30:15;;;;;;;9.57;6.75;;;;;;;9.14;43.67;100094.28;5053322;28;20036;-88
2022/04/14 02:32:41;;;;;;;7.95;6.35;;;;;;;8.24;43.81;99980.41;5035242;28;20036;-88
2022/04/14 02:35:07;;;;;;;9.20;6.82;;;;;;;8.56;43.92;100031.66;5035170;28;20036;-88
2022/04/14 02:37:32;;;;;;;6.93;6.32;;;;;;;8.21;43.85;99974.63;5034173;28;20159;-88
2022/04/14 02:39:58;;;;;;;11.68;6.25;;;;;;;7.60;44.32;99886.81;5034988;28;20111;-88
2022/04/14 02:42:23;;;;;;;8.50;5.90;;;;;;;8.54;44.11;100044.97;5034982;28;20035;-88
2022/04/14 02:44:48;;;;;;;6.72;5.75;;;;;;;8.41;44.10;100007.69;5052847;28;20512;-88
2022/04/14 02:47:14;;;;;;;8.60;5.20;;;;;;;8.58;43.70;100030.50;5035065;28;20033;-88
2022/04/14 02:49:39;;;;;;;6.38;4.72;;;;;;;8.23;43.89;99997.16;5052985;28;20151;-88
2022/04/14 02:52:05;;;;;;;6.55;5.47;;;;;;;8.54;44.04;100012.56;5034776;28;20097;-88
2022/04/14 02:54:37;;;;;;;9.25;6.03;;;;;;;8.05;43.98;99943.72;5052395;28;20025;-88
2022/04/14 02:57:06;;;;;;;7.35;5.80;;;;;;;8.93;43.82;100093.81;5034645;28;20021;-88
2022/04/14 02:59:31;;;;;;;11.45;6.40;;;;;;;8.47;44.00;100038.66;5051989;28;20504;-88
2022/04/14 03:01:57;;;;;;;9.15;6.15;;;;;;;8.86;43.83;100104.94;5034635;28;20032;-88
2022/04/14 03:04:22;;;;;;;8.52;6.35;;;;;;;7.86;44.53;99951.75;5034531;28;20564;-88
2022/04/14 03:06:48;;;;;;;12.57;7.80;;;;;;;8.08;43.75;100027.56;5034695;28;20025;-88
2022/04/14 03:09:13;;;;;;;11.98;7.97;;;;;;;7.72;44.11;99974.16;5034590;28;20478;-88
2022/04/14 03:11:38;;;;;;;15.60;9.23;;;;;;;8.70;44.54;100136.38;5034590;28;20021;-88
2022/04/14 03:14:04;;;;;;;18.90;13.63;;;;;;;7.71;44.55;99977.75;5034466;28;20067;-88
2022/04/14 03:16:29;;;;;;;21.10;13.32;;;;;;;8.50;44.74;100101.50;5034440;28;20386;-88
2022/04/14 03:18:55;;;;;;;16.90;13.02;;;;;;;7.71;44.48;99998.78;5034384;28;20124;-88
2022/04/14 03:21:20;;;;;;;17.83;12.65;;;;;;;8.01;44.08;100047.53;5052074;28;20086;-88
2022/04/14 03:23:45;;;;;;;18.67;13.20;;;;;;;7.53;44.52;99967.22;5034335;28;20082;-88
2022/04/14 03:26:11;;;;;;;20.58;12.52;;;;;;;7.98;44.47;100068.88;5052073;28;20052;-88
2022/04/14 03:28:36;;;;;;;20.60;12.35;;;;;;;8.17;44.79;100094.22;5051830;28;20490;-89
2022/04/14 03:31:02;;;;;;;19.48;12.85;;;;;;;8.04;44.46;100081.44;5051624;28;20025;-88
2022/04/14 03:33:28;;;;;;;17.17;12.05;;;;;;;7.84;44.70;100082.53;5051775;28;20025;-89
2022/04/14 03:35:53;;;;;;;18.33;12.48;;;;;;;8.48;44.65;100156.09;5033935;28;21951;-88
2022/04/14 03:38:19;;;;;;;19.60;13.13;;;;;;;7.79;44.83;100051.44;5033843;28;20033;-88
2022/04/14 03:40:44;;;;;;;19.33;11.88;;;;;;;7.90;45.06;100038.06;5051507;28;20555;-89
2022/04/14 03:43:09;;;;;;;19.67;12.05;;;;;;;7.77;45.05;100015.75;5051395;28;20086;-89
2022/04/14 03:45:35;;;;;;;19.48;12.25;;;;;;;8.36;44.76;100088.06;5033673;28;20116;-89
2022/04/14 03:48:00;;;;;;;18.42;13.20;;;;;;;8.44;44.24;100127.59;5033864;28;20025;-88
2022/04/14 03:50:26;;;;;;;17.75;12.10;;;;;;;8.03;44.29;100048.22;5051745;28;20025;-89
2022/04/14 03:52:51;;;;;;;19.20;11.13;;;;;;;7.17;44.78;99912.94;5051636;28;20056;-88
2022/04/14 03:55:17;;;;;;;17.50;12.50;;;;;;;8.18;44.80;100083.59;5051612;28;20078;-89
2022/04/14 03:57:42;;;;;;;21.67;13.90;;;;;;;7.94;44.77;100049.94;5033535;28;20079;-89
2022/04/14 04:00:08;;;;;;;19.27;14.70;;;;;;;7.50;44.81;99985.91;5033534;28;20115;-88
2022/04/14 04:02:36;;;;;;;20.40;14.18;;;;;;;7.91;44.60;100047.63;5033413;28;20021;-88
2022/04/14 04:05:02;;;;;;;24.90;15.55;;;;;;;8.56;44.34;100145.66;5033484;28;20025;-88
2022/04/14 04:07:27;;;;;;;24.02;14.68;;;;;;;8.01;44.41;100115.09;5033547;28;20421;-89
2022/04/14 04:09:53;;;;;;;23.52;15.48;;;;;;;7.79;44.67;100035.66;5033560;28;20452;-89
2022/04/14 04:12:21;;;;;;;22.63;14.68;;;;;;;7.84;44.39;100053.63;5033496;28;20033;-89
2022/04/14 04:14:48;;;;;;;27.63;16.05;;;;;;;8.04;44.73;100078.81;5033551;28;20047;-88
2022/04/14 04:17:16;;;;;;;20.25;14.23;;;;;;;8.64;44.69;100180.91;5033508;28;20032;-89
2022/04/14 04:19:43;;;;;;;23.67;15.55;;;;;;;8.27;45.03;100118.69;5051089;28;20559;-89
2022/04/14 04:22:09;;;;;;;23.20;14.07;;;;;;;7.40;44.43;99974.59;5033273;28;20036;-88
2022/04/14 04:24:34;;;;;;;20.67;12.52;;;;;;;8.22;44.73;100129.66;5051241;28;20072;-89
2022/04/14 04:27:00;;;;;;;22.30;14.15;;;;;;;7.95;44.40;100066.53;5033138;28;20036;-89
2022/04/14 04:29:25;;;;;;;18.48;12.32;;;;;;;8.42;44.38;100145.34;5050978;28;20482;-89
2022/04/14 04:31:51;;;;;;;22.27;12.63;;;;;;;8.00;44.85;100068.72;5032969;28;20119;-88
2022/04/14 04:34:19;;;;;;;18.75;11.85;;;;;;;8.35;44.96;100131.94;5033202;28;20021;-89
2022/04/14 04:36:44;;;;;;;19.45;12.05;;;;;;;8.01;45.25;100079.09;5032933;28;20433;-89
2022/04/14 04:39:10;;;;;;;21.70;12.75;;;;;;;8.65;44.94;100182.56;5032972;28;20025;-89
2022/04/14 04:41:36;;;;;;;59.15;32.88;;;;;;;7.93;44.98;100071.13;5032898;28;20525;-88
2022/04/14 04:44:01;;;;;;;33.08;20.00;;;;;;;7.59;45.42;100042.00;5051805;28;20025;-89
2022/04/14 04:46:26;;;;;;;21.85;14.80;;;;;;;8.08;45.38;100160.88;5033475;28;20067;-89
2022/04/14 04:48:52;;;;;;;24.90;14.63;;;;;;;7.53;45.01;100045.22;5033397;28;20025;-89
2022/04/14 04:51:17;;;;;;;23.40;15.27;;;;;;;8.68;44.84;100204.16;5033390;28;20100;-88
2022/04/14 04:53:43;;;;;;;27.55;16.50;;;;;;;8.64;45.05;100207.25;5051347;28;20413;-89
2022/04/14 04:56:09;;;;;;;30.00;17.73;;;;;;;8.28;44.63;100115.09;5033313;28;20031;-89
2022/04/14 04:58:34;;;;;;;27.80;16.52;;;;;;;8.04;44.73;100075.34;5032956;28;20025;-88
2022/04/14 05:01:00;;;;;;;25.40;16.13;;;;;;;8.98;44.55;100234.59;5033838;28;20025;-88
2022/04/14 05:03:25;;;;;;;27.00;17.85;;;;;;;8.24;44.55;100082.16;5054820;28;20460;-89
2022/04/14 05:05:50;;;;;;;25.77;16.60;;;;;;;9.05;44.86;100221.63;5055210;28;20033;-88
2022/04/14 05:08:16;;;;;;;28.20;15.27;;;;;;;9.03;45.20;100205.16;5037361;28;20020;-88
2022/04/14 05:10:42;;;;;;;23.80;14.07;;;;;;;9.09;44.74;100208.00;5055096;28;20024;-88
2022/04/14 05:13:08;;;;;;;21.70;13.43;;;;;;;8.87;44.21;100168.94;5054591;28;20532;-89
2022/04/14 05:15:35;;;;;;;18.52;13.30;;;;;;;8.79;44.67;100130.22;5054749;28;20052;-88
2022/04/14 05:18:01;;;;;;;18.20;13.02;;;;;;;8.59;44.58;100099.78;5036640;28;20025;-88
2022/04/14 05:20:26;;;;;;;26.33;14.38;;;;;;;8.81;44.49;100115.09;5054371;28;20036;-88
2022/04/14 05:22:52;;;;;;;18.40;12.60;;;;;;;9.66;44.03;100224.25;5054369;28;20032;-88
2022/04/14 05:25:17;;;;;;;16.95;12.63;;;;;;;9.19;44.10;100149.97;5036537;28;20111;-88
2022/04/14 05:27:42;;;;;;;21.45;12.95;;;;;;;8.84;44.05;100098.16;5054344;28;20115;-88
2022/04/14 05:30:09;;;;;;;20.52;13.57;;;;;;;9.31;44.33;100180.34;5054532;28;20021;-87
2022/04/14 05:32:39;;;;;;;19.90;14.10;;;;;;;9.20;43.81;100120.00;5037182;28;20025;-88
2022/04/14 05:35:07;;;;;;;15.48;11.93;;;;;;;9.48;43.99;100174.19;5054604;28;20032;-88
2022/04/14 05:37:33;;;;;;;15.32;10.80;;;;;;;10.12;43.94;100230.09;5036631;28;20123;-88
2022/04/14 05:39:58;;;;;;;21.48;12.55;;;;;;;9.23;43.62;100096.81;5054590;28;20478;-87
2022/04/14 05:42:24;;;;;;;13.93;10.65;;;;;;;9.34;43.75;100074.63;5035542;28;20025;-88
2022/04/14 05:44:49;;;;;;;14.00;10.63;;;;;;;9.91;43.89;100156.66;5036036;28;20032;-88
2022/04/14 05:47:15;;;;;;;13.07;9.82;;;;;;;9.93;43.83;100169.69;5036071;28;20029;-87
2022/04/14 05:49:40;;;;;;;11.70;9.90;;;;;;;10.43;43.70;100230.44;5053267;28;20033;-87
2022/04/14 05:52:06;;;;;;;19.02;10.80;;;;;;;9.92;43.77;100137.19;5053884;28;20037;-87
2022/04/14 05:54:31;;;;;;;15.13;10.80;;;;;;;10.74;43.78;100236.81;5035742;28;20025;-88
2022/04/14 05:56:57;;;;;;;15.25;10.80;;;;;;;10.49;43.45;100206.03;5053632;28;20056;-87
2022/04/14 05:59:22;;;;;;;16.48;11.88;;;;;;;10.21;43.34;100142.09;5030053;28;20063;-88
2022/04/14 06:01:47;;;;;;;17.58;11.93;;;;;;;10.29;43.36;100130.75;5044148;28;20136;-87
2022/04/14 06:04:13;;;;;;;16.30;12.07;;;;;;;11.07;43.53;100224.47;5051289;28;20465;-88
2022/04/14 06:06:38;;;;;;;14.23;11.60;;;;;;;11.00;43.72;100201.50;5035418;28;20563;-88
2022/04/14 06:09:04;;;;;;;20.00;12.13;;;;;;;11.04;43.09;100208.09;5052655;28;20025;-88
2022/04/14 06:11:30;;;;;;;15.77;11.43;;;;;;;10.49;43.39;100076.69;5048929;28;20413;-87
2022/04/14 06:13:55;;;;;;;14.65;11.45;;;;;;;11.35;43.11;100211.75;5034917;28;20025;-87
2022/04/14 06:16:21;;;;;;;17.13;10.82;;;;;;;11.42;43.42;100201.34;5035072;28;20020;-88
2022/04/14 06:18:47;;;;;;;11.38;8.60;;;;;;;11.65;43.12;100222.63;5053749;28;20048;-88
2022/04/14 06:21:12;;;;;;;16.10;8.50;;;;;;;11.24;43.12;100161.03;5035480;28;20529;-88
2022/04/14 06:23:37;;;;;;;10.60;7.57;;;;;;;11.05;42.66;100144.53;5034903;28;20118;-88
2022/04/14 06:26:04;;;;;;;11.35;8.20;;;;;;;11.89;42.81;100230.56;5052941;28;20642;-88
2022/04/14 06:28:29;;;;;;;8.88;7.97;;;;;;;11.36;42.29;100143.84;5023703;28;20082;-90
2022/04/14 06:30:56;;;;;;;8.68;7.82;;;;;;;11.63;42.38;100171.72;5020787;28;20026;-88
2022/04/14 06:33:23;;;;;;;9.25;7.97;;;;;;;11.90;42.52;100189.88;5052209;28;20166;-88
2022/04/14 06:35:49;;;;;;;12.65;7.72;;;;;;;11.55;42.51;100132.06;5052129;28;20025;-87
2022/04/14 06:38:15;;;;;;;7.28;6.57;;;;;;;12.34;41.85;100219.31;5052662;28;20047;-88
2022/04/14 06:40:40;;;;;;;9.43;6.47;;;;;;;12.06;41.54;100176.59;5034622;28;20036;-87
2022/04/14 06:43:06;;;;;;;9.18;7.05;;;;;;;11.85;41.84;100110.16;5048946;28;20031;-87
2022/04/14 06:45:31;;;;;;;11.68;7.22;;;;;;;12.15;41.72;100174.72;5034781;28;20024;-87
2022/04/14 06:47:57;;;;;;;9.38;7.35;;;;;;;12.37;40.85;100212.84;5032828;28;20035;-87
2022/04/14 06:50:23;;;;;;;8.10;6.43;;;;;;;11.80;40.76;100101.09;5020977;28;20027;-86
2022/04/14 06:52:51;;;;;;;10.13;8.63;;;;;;;12.82;40.77;100230.66;5027042;28;20116;-86
2022/04/14 06:55:16;;;;;;;11.27;7.88;;;;;;;12.29;40.49;100120.22;5021569;28;20025;-87
2022/04/14 06:57:42;;;;;;;10.13;7.78;;;;;;;12.64;40.29;100171.81;5047599;28;20025;-86
2022/04/14 07:00:08;;;;;;;7.63;5.78;;;;;;;12.53;39.83;100125.34;5052234;28;20124;-88
2022/04/14 07:02:35;;;;;;;8.30;6.47;;;;;;;12.86;39.68;100192.19;5051312;28;20108;-85
2022/04/14 07:05:00;;;;;;;9.38;6.53;;;;;;;13.35;39.39;100229.78;5022050;28;20029;-88
2022/04/14 07:07:26;;;;;;;8.90;5.85;;;;;;;13.11;39.16;100179.56;5046898;28;20478;-86
2022/04/14 07:09:52;;;;;;;8.60;6.88;;;;;;;12.89;38.90;100143.31;5029037;28;20030;-86
2022/04/14 07:12:17;;;;;;;9.90;7.40;;;;;;;13.31;38.73;100174.63;5031905;28;20064;-87
2022/04/14 07:14:43;;;;;;;9.50;6.60;;;;;;;13.02;38.61;100096.66;5031727;28;20417;-86
2022/04/14 07:17:10;;;;;;;6.95;6.25;;;;;;;13.71;38.37;100207.09;5033214;28;20043;-86
2022/04/14 07:19:35;;;;;;;6.82;6.13;;;;;;;14.00;37.94;100236.28;5031479;28;20500;-87
2022/04/14 07:22:02;;;;;;;6.70;5.97;;;;;;;14.09;37.46;100231.72;5050749;28;20025;-86
2022/04/14 07:24:27;;;;;;;7.60;5.55;;;;;;;13.66;37.44;100158.03;5033127;28;20055;-86
2022/04/14 07:26:53;;;;;;;6.32;5.15;;;;;;;14.21;37.53;100235.56;5046841;28;20033;-86
2022/04/14 07:29:18;;;;;;;6.53;5.43;;;;;;;13.51;37.15;100112.09;5013173;28;20033;-86
2022/04/14 07:31:45;;;;;;;6.28;5.15;;;;;;;13.93;37.14;100169.00;5013659;28;20418;-87
2022/04/14 07:34:11;;;;;;;6.72;5.22;;;;;;;13.99;36.91;100189.50;5037600;28;20052;-86
2022/04/14 07:36:37;;;;;;;7.25;5.53;;;;;;;13.81;37.01;100126.19;5050696;28;20084;-85
2022/04/14 07:39:04;;;;;;;7.68;5.78;;;;;;;14.55;37.06;100242.97;5050362;28;20043;-85
2022/04/14 07:41:29;;;;;;;6.35;5.63;;;;;;;14.07;37.35;100143.44;5043209;28;20125;-84
2022/04/14 07:43:54;;;;;;;7.82;5.30;;;;;;;14.06;36.76;100116.06;5026409;28;20037;-86
2022/04/14 07:46:20;;;;;;;5.53;5.03;;;;;;;14.32;36.64;100166.03;5026963;28;20021;-86
2022/04/14 07:48:45;;;;;;;6.53;5.47;;;;;;;14.43;36.58;100148.81;5051440;28;20028;-87
2022/04/14 07:51:11;;;;;;;7.75;6.07;;;;;;;14.29;36.73;100143.34;5045959;28;20028;-87
2022/04/14 07:53:37;;;;;;;6.20;5.60;;;;;;;14.96;36.48;100210.50;5013456;28;20040;-85
2022/04/14 07:56:05;;;;;;;5.93;5.38;;;;;;;14.67;36.42;100180.34;5020417;28;20163;-86
2022/04/14 07:58:31;;;;;;;7.65;6.60;;;;;;;15.01;36.10;100195.63;5013399;28;20665;-84
2022/04/14 08:00:56;;;;;;;7.03;6.10;;;;;;;14.88;36.12;100169.75;5035510;28;20195;-85
2022/04/14 08:03:22;;;;;;;8.57;5.20;;;;;;;15.54;36.04;100250.09;5028309;28;20098;-84
2022/04/14 08:05:48;;;;;;;6.13;4.72;;;;;;;15.63;35.85;100266.81;5030721;28;20052;-84
2022/04/14 08:08:20;;;;;;;10.23;7.05;;;;;;;15.27;35.33;100147.97;5025418;28;20056;-84
2022/04/14 08:10:48;;;;;;;6.93;6.22;;;;;;;15.24;35.49;100137.72;5050963;28;20405;-84
2022/04/14 08:13:14;;;;;;;6.30;5.70;;;;;;;15.53;34.75;100171.28;5049638;28;20050;-85
2022/04/14 08:15:40;;;;;;;12.13;8.98;;;;;;;15.58;34.20;100168.88;5022436;28;20417;-85
2022/04/14 08:18:06;;;;;;;9.35;6.60;;;;;;;14.72;33.25;100023.78;5035517;28;20029;-84
2022/04/14 08:20:34;;;;;;;11.95;9.35;;;;;;;16.15;33.13;100229.06;5030491;28;20463;-83
2022/04/14 08:23:01;;;;;;;8.77;7.10;;;;;;;16.14;32.95;100214.09;5013858;28;20029;-85
2022/04/14 08:25:29;;;;;;;9.40;6.47;;;;;;;16.11;32.24;100192.34;5030547;28;20026;-85
2022/04/14 08:27:56;;;;;;;9.35;6.00;;;;;;;15.56;31.94;100074.25;5030331;28;20025;-85
2022/04/14 08:30:23;;;;;;;6.03;5.15;;;;;;;16.12;31.74;100154.84;5040325;28;20043;-84
2022/04/14 08:32:51;;;;;;;6.65;5.35;;;;;;;16.84;30.74;100246.78;5042961;28;20032;-85
2022/04/14 08:35:18;;;;;;;8.98;6.55;;;;;;;16.28;30.60;100126.22;5050554;28;20117;-85
2022/04/14 08:37:44;;;;;;;6.70;5.72;;;;;;;17.02;30.79;100223.03;5036141;28;20537;-85
2022/04/14 08:40:12;;;;;;;8.63;5.78;;;;;;;16.62;30.86;100141.28;5036198;28;20449;-85
2022/04/14 08:42:40;;;;;;;8.93;5.90;;;;;;;17.28;30.12;100224.09;5055515;28;20079;-85
2022/04/14 08:45:13;;;;;;;7.70;5.13;;;;;;;17.01;29.37;100161.88;5034021;28;20475;-84
2022/04/14 08:47:39;;;;;;;8.02;5.18;;;;;;;17.52;29.97;100231.50;5051423;28;20035;-85
2022/04/14 08:50:08;;;;;;;7.28;6.05;;;;;;;17.66;29.78;100218.94;5049003;28;20120;-84
2022/04/14 08:52:36;;;;;;;6.60;4.80;;;;;;;17.29;29.07;100135.81;5035818;28;20029;-85
2022/04/14 08:55:04;;;;;;;8.32;5.43;;;;;;;18.14;29.09;100224.03;5038228;28;20021;-86
2022/04/14 08:57:31;;;;;;;8.43;5.15;;;;;;;18.19;28.47;100192.16;5035687;28;20107;-85
2022/04/14 08:59:58;;;;;;;6.63;5.63;;;;;;;17.90;28.36;100124.84;5050803;28;20494;-85
2022/04/14 09:02:25;;;;;;;8.45;5.10;;;;;;;18.43;27.83;100202.13;5033398;28;20029;-85
2022/04/14 09:04:50;;;;;;;7.57;4.93;;;;;;;18.57;27.64;100210.88;5020235;28;20029;-85
2022/04/14 09:07:16;;;;;;;5.93;4.82;;;;;;;18.70;27.56;100208.19;5043056;28;20382;-84
2022/04/14 09:09:42;;;;;;;5.38;4.25;;;;;;;18.47;27.07;100136.47;5042825;28;20417;-84
2022/04/14 09:12:09;;;;;;;9.85;8.45;;;;;;;18.31;27.00;100073.66;5051860;28;20111;-83
2022/04/14 09:14:37;;;;;;;6.82;4.25;;;;;;;19.41;26.18;100197.22;5024491;28;20394;-85
2022/04/14 09:17:06;;;;;;;11.15;6.07;;;;;;;19.52;26.02;100171.56;5019060;28;20040;-84
2022/04/14 09:19:32;;;;;;;9.82;7.25;;;;;;;19.13;25.49;100120.00;5041882;28;20120;-83
2022/04/14 09:22:01;;;;;;;7.97;5.13;;;;;;;19.98;25.45;100208.63;5037922;28;20025;-83
2022/04/14 09:24:49;;;;;;;6.07;4.85;;;;;;;20.13;24.53;100201.06;5038283;28;20461;-85
2022/04/14 09:27:30;;;;;;;8.80;6.78;;;;;;;20.19;24.91;100191.28;5033384;28;20028;-84
2022/04/14 09:29:57;;;;;;;8.37;5.80;;;;;;;20.19;25.34;100172.53;5021773;28;20425;-84
2022/04/14 09:32:45;;;;;;;4.30;3.85;;;;;;;20.57;24.67;100193.72;5028850;28;20037;-83
2022/04/14 09:35:18;;;;;;;7.80;6.57;;;;;;;20.19;24.57;100100.13;5027882;28;20037;-84
2022/04/14 09:37:44;;;;;;;12.52;8.88;;;;;;;20.77;24.84;100171.97;5031628;28;20457;-84
2022/04/14 09:40:10;;;;;;;5.80;5.20;;;;;;;21.07;23.92;100180.00;5049630;28;20040;-83
2022/04/14 09:42:37;;;;;;;6.00;4.05;;;;;;;21.17;23.62;100186.44;5046527;28;20024;-84
2022/04/14 09:45:20;;;;;;;5.25;4.30;;;;;;;20.44;22.71;100054.41;5025728;28;20091;-84
2022/04/14 09:47:50;;;;;;;7.65;4.20;;;;;;;21.37;22.62;100175.38;5035958;28;20033;-85
2022/04/14 09:50:32;;;;;;;8.35;5.05;;;;;;;21.57;21.83;100183.13;5053291;28;20033;-84
2022/04/14 09:53:07;;;;;;;4.90;3.60;;;;;;;21.74;21.96;100177.84;5041499;28;20017;-84
2022/04/14 09:55:37;;;;;;;6.40;3.67;;;;;;;20.60;22.06;99959.84;5017538;28;20041;-84
2022/04/14 09:58:12;;;;;;;3.72;2.88;;;;;;;22.09;21.72;100175.94;5045169;28;20025;-85
2022/04/14 10:00:51;;;;;;;3.78;2.72;;;;;;;22.25;21.00;100165.50;5026705;28;20104;-84
2022/04/14 10:03:22;;;;;;;4.30;3.00;;;;;;;21.42;21.14;100019.69;5047119;28;20025;-84
2022/04/14 10:05:52;;;;;;;3.53;2.80;;;;;;;22.43;20.88;100170.72;5032554;28;20037;-85
2022/04/14 10:08:18;;;;;;;6.32;3.03;;;;;;;21.93;20.52;100077.16;5014813;28;20033;-85
2022/04/14 10:10:46;;;;;;;6.97;3.58;;;;;;;21.86;20.64;100080.00;5034360;28;20010;-85
2022/04/14 10:13:13;;;;;;;3.88;3.33;;;;;;;22.36;20.52;100122.44;5053074;28;20028;-85
2022/04/14 10:15:41;;;;;;;6.90;3.03;;;;;;;21.79;20.72;99987.09;5035006;28;20115;-85
2022/04/14 10:18:09;;;;;;;6.97;3.67;;;;;;;22.89;20.38;100123.91;5032446;28;20013;-84
2022/04/14 10:20:37;;;;;;;3.75;3.15;;;;;;;23.19;20.17;100155.94;5050914;28;20108;-85
2022/04/14 10:23:03;;;;;;;5.15;4.10;;;;;;;23.37;19.99;100157.53;5036011;28;20486;-85
2022/04/14 10:25:29;;;;;;;6.30;3.00;;;;;;;22.42;19.67;100027.28;5032744;28;20032;-85
2022/04/14 10:27:59;;;;;;;8.02;6.07;;;;;;;22.71;19.44;100043.34;5036920;28;20565;-85
2022/04/14 10:30:27;;;;;;;5.55;3.60;;;;;;;22.97;19.60;100049.97;5031650;28;20028;-85
2022/04/14 10:32:56;;;;;;;4.68;3.85;;;;;;;23.14;19.38;100067.75;5036916;28;20033;-84
2022/04/14 10:35:27;;;;;;;6.32;4.07;;;;;;;23.82;19.27;100153.91;5032606;28;20052;-83
2022/04/14 10:38:25;;;;;;;3.92;3.00;;;;;;;23.93;18.49;100150.28;5017911;28;20423;-84
2022/04/14 10:40:56;;;;;;;4.32;3.10;;;;;;;23.74;18.83;100107.41;5034239;28;20048;-84
2022/04/14 10:43:24;;;;;;;3.90;3.47;;;;;;;23.88;18.85;100093.56;5052611;28;20119;-83
2022/04/14 10:45:54;;;;;;;3.83;3.13;;;;;;;24.44;18.34;100140.91;5035126;28;20036;-83
2022/04/14 10:48:27;;;;;;;6.25;3.70;;;;;;;24.48;17.57;100143.91;5050763;28;20017;-85
2022/04/14 10:51:20;;;;;;;6.00;3.58;;;;;;;24.55;18.12;100139.16;5032161;28;20036;-85
2022/04/14 10:53:55;;;;;;;5.80;3.33;;;;;;;24.58;18.27;100138.63;5024546;28;20051;-85
2022/04/14 10:56:44;;;;;;;5.70;3.67;;;;;;;24.74;17.57;100131.50;5028408;28;20029;-85
2022/04/14 10:59:14;;;;;;;5.20;3.47;;;;;;;24.58;18.13;100109.75;5013447;28;20037;-85
2022/04/14 11:01:52;;;;;;;4.05;3.13;;;;;;;24.89;17.38;100129.72;5032203;28;20468;-85
2022/04/14 11:04:31;;;;;;;5.80;3.00;;;;;;;24.91;17.80;100122.19;5014323;28;20029;-84
2022/04/14 11:07:08;;;;;;;4.43;3.55;;;;;;;25.07;17.47;100122.31;5014203;28;20104;-84
2022/04/14 11:09:42;;;;;;;5.88;4.20;;;;;;;25.17;17.70;100112.41;5032308;28;20380;-84
2022/04/14 11:12:09;;;;;;;4.45;3.67;;;;;;;25.08;17.34;100097.75;5046105;28;20025;-84
2022/04/14 11:14:43;;;;;;;3.67;3.20;;;;;;;25.10;17.33;100116.41;5049877;28;20027;-84
2022/04/14 11:17:31;;;;;;;4.35;2.80;;;;;;;25.03;17.41;100111.22;5034388;28;20094;-84
2022/04/14 11:20:14;;;;;;;8.02;3.47;;;;;;;24.58;17.18;100023.34;5052002;28;20592;-84
2022/04/14 11:23:01;;;;;;;3.17;2.72;;;;;;;25.32;16.08;100106.31;5053155;28;20071;-83
2022/04/14 11:25:39;;;;;;;5.07;3.03;;;;;;;25.49;16.64;100098.03;5045609;28;20017;-84